Time;durP1;ratioP1;P1;durP2;ratioP2;P2;SDS_P1;SDS_P2;PMS_P1;PMS_P2;Temp;Humidity;BMP_temperature;BMP_pressure;BME280_temperature;BME280_humidity;BME280_pressure;Samples;Min_cycle;Max_cycle;Signal;HPM_P1;HPM_P2
2021/04/11 00:00:26;;;;;;;0.00;0.00;;;13.80;58.70;;;;;;4214314;28;20051;-40
2021/04/11 00:02:48;;;;;;;0.00;0.00;;;13.90;58.70;;;;;;4215502;28;20051;-41
2021/04/11 00:05:11;;;;;;;0.00;0.00;;;13.80;58.60;;;;;;4215176;28;20510;-40
2021/04/11 00:07:34;;;;;;;0.00;0.00;;;13.90;58.70;;;;;;4215461;28;20059;-41
2021/04/11 00:09:55;;;;;;;0.00;0.00;;;14.20;58.10;;;;;;4215365;28;20090;-40
2021/04/11 00:12:16;;;;;;;0.45;0.45;;;14.30;57.80;;;;;;4215441;28;20498;-40
2021/04/11 00:14:37;;;;;;;0.10;0.10;;;14.40;57.50;;;;;;4215144;28;20044;-40
2021/04/11 00:17:00;;;;;;;0.00;0.00;;;14.50;57.30;;;;;;4215425;28;20512;-40
2021/04/11 00:19:22;;;;;;;0.88;0.88;;;14.50;57.20;;;;;;4215129;28;20119;-40
2021/04/11 00:21:43;;;;;;;0.00;0.00;;;14.50;57.30;;;;;;4215399;28;20070;-40
2021/04/11 00:24:05;;;;;;;0.00;0.00;;;14.50;57.30;;;;;;4214957;28;20503;-40
2021/04/11 00:26:25;;;;;;;;;;;14.50;57.20;;;;;;4214615;28;20071;-40
2021/04/11 00:28:46;;;;;;;0.00;0.00;;;14.50;57.10;;;;;;4215106;28;19924;-41
2021/04/11 00:31:07;;;;;;;0.00;0.00;;;14.50;57.00;;;;;;4198222;28;20063;-41
2021/04/11 00:33:32;;;;;;;0.00;0.00;;;14.60;57.00;;;;;;4209404;28;20483;-46
2021/04/11 00:35:59;;;;;;;0.47;0.47;;;14.60;57.60;;;;;;4215284;28;20498;-40
2021/04/11 00:38:20;;;;;;;0.00;0.00;;;14.60;56.90;;;;;;4215053;28;20125;-40
2021/04/11 00:40:40;;;;;;;0.00;0.00;;;14.50;56.80;;;;;;4198288;28;20143;-40
2021/04/11 00:43:06;;;;;;;0.10;0.10;;;14.60;56.90;;;;;;4198217;28;20094;-40
2021/04/11 00:45:33;;;;;;;0.63;0.52;;;14.60;56.90;;;;;;4212320;28;20452;-40
2021/04/11 00:47:58;;;;;;;0.00;0.00;;;14.60;57.00;;;;;;4214844;28;20048;-40
2021/04/11 00:50:19;;;;;;;0.00;0.00;;;14.60;56.90;;;;;;4213568;28;20131;-40
2021/04/11 00:52:43;;;;;;;0.00;0.00;;;14.70;56.90;;;;;;4214819;28;20066;-40
2021/04/11 00:55:05;;;;;;;0.00;0.00;;;14.60;56.70;;;;;;4213759;28;20050;-40
2021/04/11 00:57:27;;;;;;;0.00;0.00;;;14.60;56.90;;;;;;4214832;28;20418;-40
2021/04/11 00:59:48;;;;;;;0.00;0.00;;;14.60;56.90;;;;;;4213275;28;20117;-40
2021/04/11 01:02:09;;;;;;;0.00;0.00;;;14.80;56.70;;;;;;4212311;28;20056;-40
2021/04/11 01:04:30;;;;;;;;;;;15.10;55.70;;;;;;4213834;28;20089;-40
2021/04/11 01:06:55;;;;;;;0.00;0.00;;;15.20;55.50;;;;;;4213451;28;19984;-40
2021/04/11 01:09:22;;;;;;;0.30;0.30;;;15.10;55.00;;;;;;4213129;28;20325;-41
2021/04/11 01:11:44;;;;;;;0.00;0.00;;;15.00;55.20;;;;;;4214717;28;20048;-41
2021/04/11 01:14:06;;;;;;;0.00;0.00;;;15.00;55.60;;;;;;4213227;28;20055;-40
2021/04/11 01:16:31;;;;;;;0.00;0.00;;;15.10;55.70;;;;;;4213453;28;20518;-40
2021/04/11 01:18:55;;;;;;;0.43;0.43;;;15.00;55.50;;;;;;4213200;28;20052;-40
2021/04/11 01:21:33;;;;;;;0.75;0.75;;;15.00;55.70;;;;;;4213365;28;20060;-40
2021/04/11 01:24:02;;;;;;;0.00;0.00;;;14.90;55.70;;;;;;4214155;28;20048;-40
2021/04/11 01:26:27;;;;;;;0.10;0.10;;;14.80;56.20;;;;;;4213449;28;20080;-40
2021/04/11 01:28:49;;;;;;;0.00;0.00;;;14.70;56.40;;;;;;4213950;28;20056;-40
2021/04/11 01:31:12;;;;;;;0.00;0.00;;;14.60;56.70;;;;;;4212821;28;20143;-40
2021/04/11 01:33:35;;;;;;;0.00;0.00;;;14.60;57.00;;;;;;4214242;28;20109;-40
2021/04/11 01:35:59;;;;;;;0.00;0.00;;;14.60;57.00;;;;;;4213105;28;20056;-40
2021/04/11 01:38:23;;;;;;;0.00;0.00;;;14.60;56.90;;;;;;4213789;28;20044;-40
2021/04/11 01:40:49;;;;;;;0.00;0.00;;;14.60;56.90;;;;;;4214157;28;20083;-40
2021/04/11 01:43:13;;;;;;;0.00;0.00;;;14.50;56.90;;;;;;4213423;28;20857;-41
2021/04/11 01:45:39;;;;;;;0.00;0.00;;;14.50;57.20;;;;;;4212686;28;20059;-41
2021/04/11 01:48:04;;;;;;;0.00;0.00;;;14.40;57.30;;;;;;4213675;28;20056;-41
2021/04/11 01:50:26;;;;;;;0.00;0.00;;;14.50;57.40;;;;;;4213990;28;20066;-40
2021/04/11 01:52:47;;;;;;;0.00;0.00;;;14.70;57.00;;;;;;4213909;28;20478;-41
2021/04/11 01:55:10;;;;;;;;;;;14.80;56.40;;;;;;4214001;28;20109;-41
2021/04/11 01:57:37;;;;;;;0.00;0.00;;;14.80;56.30;;;;;;4213748;28;19974;-41
2021/04/11 02:00:13;;;;;;;0.00;0.00;;;14.80;56.30;;;;;;4212212;28;20841;-42
2021/04/11 02:02:38;;;;;;;0.00;0.00;;;14.80;56.20;;;;;;4212453;28;20572;-41
2021/04/11 02:05:00;;;;;;;0.00;0.00;;;15.00;55.90;;;;;;4213532;28;20052;-41
2021/04/11 02:07:21;;;;;;;0.10;0.10;;;15.10;55.60;;;;;;4196943;28;20084;-40
2021/04/11 02:09:51;;;;;;;0.00;0.00;;;15.00;55.60;;;;;;4195768;28;20145;-40
2021/04/11 02:12:27;;;;;;;0.00;0.00;;;15.00;55.80;;;;;;4196875;28;20056;-40
2021/04/11 02:14:58;;;;;;;0.00;0.00;;;15.10;55.50;;;;;;4239355;27;20595;-44
2021/04/11 02:17:20;;;;;;;0.00;0.00;;;15.30;55.30;;;;;;4213581;28;20513;-47
2021/04/11 02:19:41;;;;;;;0.00;0.00;;;15.30;55.00;;;;;;4213614;28;20102;-44
2021/04/11 02:22:09;;;;;;;0.00;0.00;;;15.30;55.00;;;;;;4212485;28;20494;-41
2021/04/11 02:24:31;;;;;;;0.00;0.00;;;15.30;54.80;;;;;;4207924;28;20044;-47
2021/04/11 02:26:53;;;;;;;;;;;15.30;54.90;;;;;;4213860;28;20040;-46
2021/04/11 02:29:16;;;;;;;0.00;0.00;;;15.20;55.00;;;;;;4213212;28;19943;-46
2021/04/11 02:31:37;;;;;;;0.00;0.00;;;15.20;55.20;;;;;;4213167;28;20131;-44
2021/04/11 02:34:12;;;;;;;3.03;0.55;;;15.10;55.50;;;;;;4212175;28;20533;-42
2021/04/11 02:36:43;;;;;;;0.00;0.00;;;15.00;55.80;;;;;;4212919;28;20449;-42
2021/04/11 02:39:12;;;;;;;0.00;0.00;;;14.90;56.00;;;;;;4212150;28;20803;-41
2021/04/11 02:41:34;;;;;;;0.00;0.00;;;15.10;55.70;;;;;;4213264;28;20112;-41
2021/04/11 02:43:57;;;;;;;0.00;0.00;;;15.30;55.30;;;;;;4211240;28;20055;-42
2021/04/11 02:46:19;;;;;;;0.00;0.00;;;15.40;54.90;;;;;;4212180;28;20052;-45
2021/04/11 02:48:41;;;;;;;0.00;0.00;;;15.40;54.80;;;;;;4212011;28;20089;-43
2021/04/11 02:51:11;;;;;;;0.00;0.00;;;15.40;54.60;;;;;;4211833;28;20055;-41
2021/04/11 02:53:43;;;;;;;0.10;0.10;;;15.40;54.60;;;;;;4212788;28;20044;-45
2021/04/11 02:56:16;;;;;;;0.00;0.00;;;15.30;54.70;;;;;;4211890;28;20417;-42
2021/04/11 02:58:41;;;;;;;0.00;0.00;;;15.30;54.90;;;;;;4211647;28;20496;-41
2021/04/11 03:01:06;;;;;;;0.00;0.00;;;15.20;55.10;;;;;;4211195;28;20077;-45
2021/04/11 03:03:29;;;;;;;0.00;0.00;;;15.10;55.10;;;;;;4211433;28;20083;-41
2021/04/11 03:05:54;;;;;;;0.00;0.00;;;15.20;55.10;;;;;;4211737;28;20047;-43
2021/04/11 03:08:21;;;;;;;0.00;0.00;;;15.20;55.00;;;;;;4211459;28;20131;-44
2021/04/11 03:10:48;;;;;;;0.00;0.00;;;15.20;55.10;;;;;;4211678;28;20047;-43
2021/04/11 03:13:13;;;;;;;0.08;0.08;;;15.10;55.30;;;;;;4211327;28;20052;-44
2021/04/11 03:15:34;;;;;;;0.00;0.00;;;15.00;55.40;;;;;;4211603;28;20048;-41
2021/04/11 03:17:56;;;;;;;;;;;14.90;55.70;;;;;;4213073;28;20075;-40
2021/04/11 03:20:26;;;;;;;0.22;0.22;;;14.80;56.00;;;;;;4211077;28;19963;-41
2021/04/11 03:23:02;;;;;;;0.00;0.00;;;14.70;56.10;;;;;;4211335;28;20492;-42
2021/04/11 03:25:24;;;;;;;0.00;0.00;;;14.80;56.30;;;;;;4211890;28;20052;-40
2021/04/11 03:27:52;;;;;;;0.00;0.00;;;15.00;55.90;;;;;;4212610;28;20088;-41
2021/04/11 03:30:18;;;;;;;0.00;0.00;;;15.10;55.40;;;;;;4211491;28;20058;-40
2021/04/11 03:32:42;;;;;;;18.20;0.88;;;15.20;55.30;;;;;;4211093;28;20083;-42
2021/04/11 03:35:09;;;;;;;0.00;0.00;;;15.00;55.40;;;;;;4194713;28;20052;-41
2021/04/11 03:37:34;;;;;;;0.00;0.00;;;15.00;55.40;;;;;;4195890;28;20048;-40
2021/04/11 03:39:57;;;;;;;0.00;0.00;;;14.90;55.50;;;;;;4197332;28;20051;-40
2021/04/11 03:42:23;;;;;;;0.00;0.00;;;14.80;55.80;;;;;;4211140;28;20068;-41
2021/04/11 03:44:50;;;;;;;0.00;0.00;;;14.80;55.90;;;;;;4195671;28;20102;-41
2021/04/11 03:47:17;;;;;;;0.00;0.00;;;14.70;56.10;;;;;;4194690;28;20521;-41
2021/04/11 03:49:50;;;;;;;0.00;0.00;;;14.70;56.20;;;;;;4195660;28;20158;-40
2021/04/11 03:52:25;;;;;;;0.00;0.00;;;14.60;56.30;;;;;;4194561;28;20063;-40
2021/04/11 03:54:49;;;;;;;0.00;0.00;;;14.60;56.40;;;;;;4211791;28;20052;-40
2021/04/11 03:57:18;;;;;;;0.00;0.00;;;14.50;56.60;;;;;;4212404;28;20104;-40
2021/04/11 03:59:47;;;;;;;0.00;0.00;;;14.70;56.50;;;;;;4197570;28;20052;-40
2021/04/11 04:02:10;;;;;;;0.00;0.00;;;14.80;56.20;;;;;;4212279;28;20529;-41
2021/04/11 04:04:33;;;;;;;0.00;0.00;;;14.90;56.50;;;;;;4211097;28;20495;-40
2021/04/11 04:07:12;;;;;;;0.00;0.00;;;15.00;55.60;;;;;;4200994;28;20054;-40
2021/04/11 04:09:37;;;;;;;0.00;0.00;;;15.00;55.30;;;;;;4212151;28;20113;-40
2021/04/11 04:12:12;;;;;;;0.00;0.00;;;15.10;55.90;;;;;;4212244;28;20144;-43
2021/04/11 04:14:44;;;;;;;0.10;0.10;;;15.00;55.30;;;;;;4212135;28;20044;-41
2021/04/11 04:17:29;;;;;;;0.00;0.00;;;15.00;55.40;;;;;;4210881;28;20056;-40
2021/04/11 04:20:01;;;;;;;0.28;0.28;;;15.10;55.40;;;;;;4211990;28;20051;-40
2021/04/11 04:22:42;;;;;;;0.05;0.05;;;15.40;54.80;;;;;;4210638;28;20105;-44
2021/04/11 04:25:35;;;;;;;0.75;0.75;;;15.60;54.10;;;;;;4210997;28;20099;-44
2021/04/11 04:28:19;;;;;;;0.00;0.00;;;15.70;53.60;;;;;;4210805;28;20055;-44
2021/04/11 04:30:51;;;;;;;0.00;0.00;;;15.70;53.90;;;;;;4211826;28;20449;-42
2021/04/11 04:33:34;;;;;;;0.00;0.00;;;15.60;54.00;;;;;;4211006;28;20135;-41
2021/04/11 04:36:10;;;;;;;0.00;0.00;;;15.60;53.80;;;;;;4208762;28;20044;-44
2021/04/11 04:38:48;;;;;;;0.00;0.00;;;15.60;54.10;;;;;;4213970;28;20538;-45
2021/04/11 04:41:15;;;;;;;0.10;0.10;;;15.50;54.30;;;;;;4213994;28;20086;-44
2021/04/11 04:43:49;;;;;;;0.30;0.30;;;15.40;54.40;;;;;;4214859;28;20059;-43
2021/04/11 04:46:15;;;;;;;0.00;0.00;;;15.40;54.60;;;;;;4213910;28;20097;-41
2021/04/11 04:48:41;;;;;;;0.00;0.00;;;15.30;54.80;;;;;;4213787;28;20067;-43
2021/04/11 04:51:14;;;;;;;0.00;0.00;;;15.30;54.90;;;;;;4213750;28;20121;-40
2021/04/11 04:53:39;;;;;;;;;;;15.20;55.10;;;;;;4209966;28;20475;-42
2021/04/11 04:56:11;;;;;;;0.00;0.00;;;15.20;55.10;;;;;;4213746;28;20001;-43
2021/04/11 04:58:35;;;;;;;0.00;0.00;;;15.10;55.30;;;;;;4214239;28;20056;-43
2021/04/11 05:01:00;;;;;;;0.10;0.10;;;15.10;55.30;;;;;;4213815;28;20047;-46
2021/04/11 05:03:31;;;;;;;0.30;0.30;;;15.10;55.40;;;;;;4213622;28;20058;-41
2021/04/11 05:06:09;;;;;;;0.00;0.00;;;15.30;55.20;;;;;;4213387;28;20498;-43
2021/04/11 05:08:39;;;;;;;0.00;0.00;;;15.50;54.60;;;;;;4213466;28;20079;-44
2021/04/11 05:11:06;;;;;;;0.10;0.10;;;15.70;54.20;;;;;;4196784;28;20056;-45
2021/04/11 05:13:36;;;;;;;2.35;1.55;;;15.70;54.40;;;;;;4210454;28;20062;-48
2021/04/11 05:16:04;;;;;;;0.00;0.00;;;15.90;53.30;;;;;;4213496;28;20048;-47
2021/04/11 05:18:31;;;;;;;0.47;0.47;;;15.90;53.40;;;;;;4213356;28;20071;-43
2021/04/11 05:21:11;;;;;;;0.00;0.00;;;15.80;53.60;;;;;;4213115;28;20153;-43
2021/04/11 05:23:41;;;;;;;0.00;0.00;;;15.80;53.70;;;;;;4214345;28;20134;-41
2021/04/11 05:26:08;;;;;;;0.00;0.00;;;15.70;53.80;;;;;;4213258;28;20058;-44
2021/04/11 05:28:41;;;;;;;0.00;0.00;;;15.70;54.10;;;;;;4212492;28;20048;-42
2021/04/11 05:31:07;;;;;;;0.00;0.00;;;15.60;54.30;;;;;;4213135;28;20583;-41
2021/04/11 05:33:28;;;;;;;0.00;0.00;;;15.50;55.00;;;;;;4212849;28;20083;-41
2021/04/11 05:35:54;;;;;;;0.00;0.00;;;15.40;55.50;;;;;;4214152;28;20461;-41
2021/04/11 05:38:26;;;;;;;0.00;0.00;;;15.50;55.40;;;;;;4214026;28;20075;-43
2021/04/11 05:40:53;;;;;;;0.00;0.00;;;15.40;55.40;;;;;;4212648;28;20054;-41
2021/04/11 05:43:19;;;;;;;0.00;0.00;;;15.30;55.50;;;;;;4212118;28;20044;-40
2021/04/11 05:45:47;;;;;;;4.28;1.40;;;15.20;55.70;;;;;;4213781;28;20146;-41
2021/04/11 05:48:18;;;;;;;0.00;0.00;;;15.10;55.80;;;;;;4208923;28;20131;-47
2021/04/11 05:50:42;;;;;;;0.10;0.10;;;15.10;55.70;;;;;;4207273;28;20601;-42
2021/04/11 05:53:08;;;;;;;0.00;0.00;;;15.20;55.70;;;;;;4205772;28;20045;-46
2021/04/11 05:55:35;;;;;;;0.00;0.00;;;15.40;55.60;;;;;;4211028;28;20055;-44
2021/04/11 05:58:01;;;;;;;0.00;0.00;;;15.60;55.20;;;;;;4213861;28;20052;-41
2021/04/11 06:00:25;;;;;;;0.00;0.00;;;15.70;54.70;;;;;;4213174;28;20414;-42
2021/04/11 06:02:51;;;;;;;0.00;0.00;;;15.60;54.80;;;;;;4213342;28;20121;-42
2021/04/11 06:05:17;;;;;;;0.00;0.00;;;15.50;54.90;;;;;;4213140;28;20469;-43
2021/04/11 06:07:46;;;;;;;0.00;0.00;;;15.40;55.00;;;;;;4213081;28;20101;-43
2021/04/11 06:10:11;;;;;;;0.00;0.00;;;15.40;55.10;;;;;;4212426;28;20127;-41
2021/04/11 06:12:42;;;;;;;0.00;0.00;;;15.30;55.50;;;;;;4211361;28;20070;-42
2021/04/11 06:15:09;;;;;;;0.00;0.00;;;15.20;55.70;;;;;;4196859;28;20060;-44
2021/04/11 06:17:30;;;;;;;0.00;0.00;;;15.20;55.80;;;;;;4206795;28;20126;-41
2021/04/11 06:19:51;;;;;;;0.00;0.00;;;15.20;55.70;;;;;;4213686;28;20078;-41
2021/04/11 06:22:18;;;;;;;;;;;15.10;55.70;;;;;;4213924;28;20056;-41
2021/04/11 06:24:47;;;;;;;0.00;0.00;;;15.10;55.70;;;;;;4212228;28;19947;-41
2021/04/11 06:27:25;;;;;;;0.00;0.00;;;15.00;55.90;;;;;;4213355;28;20059;-42
2021/04/11 06:29:54;;;;;;;0.77;0.77;;;15.00;56.00;;;;;;4206990;28;20078;-49
2021/04/11 06:32:16;;;;;;;0.00;0.00;;;15.00;56.00;;;;;;4196435;28;20056;-43
2021/04/11 06:34:40;;;;;;;0.00;0.00;;;15.20;55.60;;;;;;4196543;28;20063;-41
2021/04/11 06:37:04;;;;;;;0.00;0.00;;;15.40;55.10;;;;;;4196410;28;20059;-45
2021/04/11 06:39:29;;;;;;;0.00;0.00;;;15.50;54.80;;;;;;4204791;28;20047;-45
2021/04/11 06:42:44;;;;;;;0.00;0.00;;;15.60;54.40;;;;;;4212750;28;20097;-47
2021/04/11 06:45:14;;;;;;;0.00;0.00;;;15.70;54.10;;;;;;4190396;28;20044;-41
2021/04/11 06:48:11;;;;;;;0.00;0.00;;;15.80;53.90;;;;;;4213130;28;20056;-41
2021/04/11 06:50:44;;;;;;;0.00;0.00;;;16.00;53.60;;;;;;4185404;28;20060;-43
2021/04/11 06:53:23;;;;;;;0.00;0.00;;;16.20;53.00;;;;;;4196239;28;20059;-41
2021/04/11 06:56:18;;;;;;;0.00;0.00;;;16.20;52.70;;;;;;4212974;28;20140;-42
2021/04/11 06:58:48;;;;;;;0.00;0.00;;;16.10;53.10;;;;;;4212921;28;20095;-41
2021/04/11 07:01:31;;;;;;;0.00;0.00;;;15.90;53.50;;;;;;4212927;28;20159;-43
2021/04/11 07:04:32;;;;;;;0.00;0.00;;;15.70;53.90;;;;;;4198641;28;20062;-43
2021/04/11 07:07:28;;;;;;;0.00;0.00;;;15.60;54.30;;;;;;4196001;28;20478;-45
2021/04/11 07:09:51;;;;;;;0.10;0.10;;;15.70;54.20;;;;;;4193034;28;20043;-47
2021/04/11 07:12:50;;;;;;;0.00;0.00;;;15.80;54.00;;;;;;4222525;28;20074;-50
2021/04/11 07:15:23;;;;;;;0.00;0.00;;;15.80;54.50;;;;;;4212774;28;20452;-38
2021/04/11 07:18:32;;;;;;;0.13;0.13;;;15.80;54.90;;;;;;4211524;28;20055;-41
2021/04/11 07:21:55;;;;;;;0.00;0.00;;;15.70;54.90;;;;;;4210167;28;20058;-38
2021/04/11 07:25:00;;;;;;;0.00;0.00;;;15.50;55.20;;;;;;4210886;28;20101;-40
2021/04/11 07:27:34;;;;;;;0.00;0.00;;;15.40;55.40;;;;;;4211908;28;20052;-38
2021/04/11 07:30:09;;;;;;;0.00;0.00;;;15.30;55.50;;;;;;4211828;28;20460;-38
2021/04/11 07:32:54;;;;;;;0.00;0.00;;;15.30;55.60;;;;;;4210938;28;20565;-44
2021/04/11 07:35:39;;;;;;;0.00;0.00;;;15.20;55.70;;;;;;4212225;28;20055;-40
2021/04/11 07:38:21;;;;;;;0.00;0.00;;;15.20;56.00;;;;;;4195618;28;20056;-38
2021/04/11 07:40:56;;;;;;;0.00;0.00;;;15.30;55.70;;;;;;4195641;28;20060;-41
2021/04/11 07:43:31;;;;;;;0.00;0.00;;;15.50;55.10;;;;;;4205748;28;20142;-41
2021/04/11 07:46:20;;;;;;;0.00;0.00;;;15.60;54.60;;;;;;4212347;28;20108;-45
2021/04/11 07:49:06;;;;;;;0.00;0.00;;;15.60;54.60;;;;;;4212043;28;20155;-43
2021/04/11 07:51:46;;;;;;;0.00;0.00;;;15.70;54.40;;;;;;4212334;28;20052;-43
2021/04/11 07:54:38;;;;;;;0.00;0.00;;;15.70;54.20;;;;;;4212095;28;20530;-42
2021/04/11 07:57:20;;;;;;;;;;;15.70;54.10;;;;;;4212650;28;20113;-38
2021/04/11 08:00:10;;;;;;;0.00;0.00;;;15.60;54.20;;;;;;4211970;28;20041;-42
2021/04/11 08:02:59;;;;;;;0.00;0.00;;;15.60;54.10;;;;;;4211759;28;20844;-38
2021/04/11 08:05:35;;;;;;;0.00;0.00;;;15.60;54.10;;;;;;4211811;28;20052;-40
2021/04/11 08:08:19;;;;;;;0.00;0.00;;;15.50;54.20;;;;;;4212147;28;20644;-39
2021/04/11 08:11:11;;;;;;;0.00;0.00;;;15.40;54.30;;;;;;4195517;28;20051;-39
2021/04/11 08:13:55;;;;;;;0.00;0.00;;;15.30;54.60;;;;;;4198727;28;20044;-39
2021/04/11 08:16:40;;;;;;;0.00;0.00;;;15.20;55.00;;;;;;4198648;28;20117;-39
2021/04/11 08:19:37;;;;;;;0.00;0.00;;;15.10;55.50;;;;;;4205636;28;20082;-38
2021/04/11 08:22:13;;;;;;;0.50;0.50;;;15.20;55.70;;;;;;4163004;28;20069;-39
2021/04/11 08:24:56;;;;;;;0.00;0.00;;;15.30;55.90;;;;;;4210608;28;20770;-40
2021/04/11 08:27:51;;;;;;;0.00;0.00;;;15.40;56.00;;;;;;4215052;28;20051;-40
2021/04/11 08:30:32;;;;;;;0.00;0.00;;;15.50;55.60;;;;;;4214173;28;20078;-39
2021/04/11 08:33:05;;;;;;;0.00;0.00;;;15.60;54.90;;;;;;4205922;28;20101;-39
2021/04/11 08:35:47;;;;;;;0.30;0.30;;;15.60;54.20;;;;;;4214598;28;20074;-39
2021/04/11 08:38:42;;;;;;;0.00;0.00;;;15.70;54.70;;;;;;4210051;28;20799;-38
2021/04/11 08:41:18;;;;;;;0.00;0.00;;;16.00;53.40;;;;;;4197993;28;20411;-39
2021/04/11 08:43:54;;;;;;;0.50;0.50;;;16.90;51.80;;;;;;4198124;28;20056;-39
2021/04/11 08:46:28;;;;;;;0.08;0.08;;;17.80;49.80;;;;;;4198066;28;20055;-39
2021/04/11 08:49:08;;;;;;;0.25;0.25;;;18.80;48.50;;;;;;4209594;28;20062;-39
2021/04/11 08:51:36;;;;;;;0.00;0.00;;;19.60;45.90;;;;;;4214449;28;20131;-40
2021/04/11 08:54:11;;;;;;;0.00;0.00;;;20.50;44.00;;;;;;4214416;28;20047;-41
2021/04/11 08:56:39;;;;;;;0.10;0.10;;;21.10;42.30;;;;;;4214475;28;20512;-39
2021/04/11 08:59:07;;;;;;;0.00;0.00;;;21.70;41.30;;;;;;4214339;28;20191;-40
2021/04/11 09:01:43;;;;;;;0.00;0.00;;;21.80;40.80;;;;;;4214311;28;20101;-40
2021/04/11 09:04:18;;;;;;;0.00;0.00;;;21.90;40.50;;;;;;4214294;28;20052;-42
2021/04/11 09:06:58;;;;;;;0.10;0.10;;;21.80;40.60;;;;;;4197733;28;20481;-40
2021/04/11 09:09:28;;;;;;;;;;;21.50;41.20;;;;;;4210056;28;20525;-40
2021/04/11 09:11:58;;;;;;;0.32;0.32;;;21.10;41.90;;;;;;4214529;28;19924;-40
2021/04/11 09:14:39;;;;;;;0.00;0.00;;;20.50;43.00;;;;;;4214239;28;20063;-41
2021/04/11 09:17:12;;;;;;;0.15;0.15;;;20.20;43.90;;;;;;4214834;28;20055;-40
2021/04/11 09:19:42;;;;;;;1.08;1.02;;;19.90;44.70;;;;;;4214224;28;20055;-40
2021/04/11 09:22:33;;;;;;;0.00;0.00;;;19.70;44.90;;;;;;4214249;28;20058;-43
2021/04/11 09:25:01;;;;;;;0.00;0.00;;;19.40;45.60;;;;;;4213956;28;20414;-40
2021/04/11 09:27:57;;;;;;;0.05;0.05;;;19.30;45.70;;;;;;4213902;28;20547;-40
2021/04/11 09:30:37;;;;;;;0.00;0.00;;;19.30;45.60;;;;;;4213630;28;20101;-40
2021/04/11 09:33:13;;;;;;;0.00;0.00;;;19.40;45.70;;;;;;4213834;28;20110;-40
2021/04/11 09:35:41;;;;;;;0.65;0.65;;;19.40;45.70;;;;;;4214274;28;20055;-40
2021/04/11 09:38:30;;;;;;;0.00;0.00;;;19.30;45.90;;;;;;4213712;28;20052;-41
2021/04/11 09:41:04;;;;;;;0.00;0.00;;;19.30;45.60;;;;;;4213980;28;20048;-41
2021/04/11 09:43:40;;;;;;;0.10;0.10;;;19.40;45.50;;;;;;4213885;28;20513;-40
2021/04/11 09:46:28;;;;;;;0.80;0.15;;;19.50;45.50;;;;;;4213970;28;20048;-39
2021/04/11 09:49:28;;;;;;;0.22;0.22;;;19.50;45.50;;;;;;4213635;28;20071;-40
2021/04/11 09:52:19;;;;;;;0.00;0.00;;;19.50;45.50;;;;;;4205642;28;20055;-47
2021/04/11 09:54:45;;;;;;;0.00;0.00;;;19.40;45.30;;;;;;4213632;28;20129;-46
2021/04/11 09:57:23;;;;;;;0.00;0.00;;;19.40;45.60;;;;;;4213905;28;20102;-48
2021/04/11 09:59:56;;;;;;;0.00;0.00;;;19.40;45.80;;;;;;4213534;28;20404;-40
2021/04/11 10:02:31;;;;;;;1.52;1.00;;;19.40;45.90;;;;;;4213760;28;20059;-40
2021/04/11 10:05:05;;;;;;;0.00;0.00;;;19.40;45.70;;;;;;4213710;28;20670;-43
2021/04/11 10:07:39;;;;;;;0.00;0.00;;;19.50;45.60;;;;;;4199675;28;20044;-41
2021/04/11 10:10:14;;;;;;;0.00;0.00;;;19.50;45.30;;;;;;4191695;28;20072;-40
2021/04/11 10:13:06;;;;;;;0.10;0.10;;;19.50;45.40;;;;;;4191911;28;20048;-39
2021/04/11 10:15:33;;;;;;;0.00;0.00;;;19.50;45.40;;;;;;4172039;28;20562;-40
2021/04/11 10:18:35;;;;;;;0.00;0.00;;;19.50;45.40;;;;;;4175337;28;20067;-41
2021/04/11 10:21:08;;;;;;;0.00;0.00;;;19.40;45.50;;;;;;4174425;28;20048;-41
2021/04/11 10:23:42;;;;;;;0.10;0.10;;;19.50;45.40;;;;;;4174642;28;20060;-40
2021/04/11 10:26:06;;;;;;;0.05;0.05;;;19.60;45.30;;;;;;4191274;28;20043;-40
2021/04/11 10:28:35;;;;;;;0.00;0.00;;;19.60;45.30;;;;;;4191896;28;20544;-41
2021/04/11 10:31:10;;;;;;;0.00;0.00;;;19.60;45.60;;;;;;4175748;28;20442;-41
2021/04/11 10:33:42;;;;;;;0.00;0.00;;;19.60;45.60;;;;;;4175331;28;20049;-41
2021/04/11 10:36:08;;;;;;;0.00;0.00;;;19.70;45.80;;;;;;4174954;28;20450;-41
2021/04/11 10:38:33;;;;;;;0.00;0.00;;;19.70;45.80;;;;;;4179170;28;20048;-40
2021/04/11 10:41:25;;;;;;;0.00;0.00;;;19.70;45.80;;;;;;4191318;28;20495;-40
2021/04/11 10:43:51;;;;;;;;;;;19.60;46.00;;;;;;4189000;28;20048;-40
2021/04/11 10:46:20;;;;;;;0.60;0.60;;;19.60;46.00;;;;;;4192087;28;19936;-40
2021/04/11 10:49:02;;;;;;;0.00;0.00;;;19.50;46.10;;;;;;4191094;28;20048;-40
2021/04/11 10:51:38;;;;;;;0.00;0.00;;;19.40;46.30;;;;;;4191479;28;20144;-40
2021/04/11 10:54:27;;;;;;;0.00;0.00;;;19.20;46.60;;;;;;4190804;28;20121;-40
2021/04/11 10:57:03;;;;;;;0.00;0.00;;;18.90;47.10;;;;;;4158984;28;20094;-39
2021/04/11 10:59:42;;;;;;;0.35;0.35;;;18.60;47.70;;;;;;4175146;28;20098;-40
2021/04/11 11:02:18;;;;;;;0.00;0.00;;;18.60;48.10;;;;;;4164958;28;20199;-40
2021/04/11 11:05:16;;;;;;;0.00;0.00;;;18.60;48.80;;;;;;4174166;28;20056;-39
2021/04/11 11:07:57;;;;;;;0.00;0.00;;;18.70;47.80;;;;;;4159469;28;20053;-43
2021/04/11 11:10:23;;;;;;;;;;;18.90;47.40;;;;;;4190872;28;20056;-40
2021/04/11 11:13:01;;;;;;;0.00;0.00;;;18.80;47.50;;;;;;4190928;28;19928;-42
2021/04/11 11:15:43;;;;;;;0.00;0.00;;;18.80;47.10;;;;;;4183780;28;20135;-40
2021/04/11 11:18:20;;;;;;;0.63;0.63;;;18.90;47.10;;;;;;4191026;28;20048;-39
2021/04/11 11:20:59;;;;;;;0.00;0.00;;;18.90;46.90;;;;;;4179413;28;20513;-40
2021/04/11 11:24:00;;;;;;;0.00;0.00;;;18.90;47.00;;;;;;4188575;28;20048;-39
2021/04/11 11:26:51;;;;;;;1.90;1.35;;;18.90;46.80;;;;;;4190358;28;20780;-39
2021/04/11 11:29:59;;;;;;;0.00;0.00;;;19.10;46.70;;;;;;4163201;28;20076;-39
2021/04/11 11:32:26;;;;;;;0.00;0.00;;;19.20;46.20;;;;;;4136019;28;20077;-40
2021/04/11 11:34:55;;;;;;;0.00;0.00;;;19.10;46.50;;;;;;4174704;28;20517;-40
2021/04/11 11:37:37;;;;;;;0.30;0.30;;;18.90;47.20;;;;;;4174517;28;20502;-40
2021/04/11 11:40:13;;;;;;;0.00;0.00;;;18.70;48.40;;;;;;4174190;28;20067;-40
2021/04/11 11:42:43;;;;;;;0.00;0.00;;;18.50;48.30;;;;;;4181791;28;20051;-40
2021/04/11 11:45:17;;;;;;;0.00;0.00;;;18.40;48.90;;;;;;4174235;28;20064;-39
2021/04/11 11:47:50;;;;;;;0.00;0.00;;;18.30;49.00;;;;;;4175425;28;20098;-39
2021/04/11 11:50:31;;;;;;;0.00;0.00;;;18.40;48.90;;;;;;4182661;28;20056;-39
2021/04/11 11:52:58;;;;;;;0.15;0.15;;;18.60;48.40;;;;;;4190822;28;20055;-41
2021/04/11 11:55:23;;;;;;;5.93;2.85;;;18.70;48.20;;;;;;4190499;28;20558;-40
2021/04/11 11:57:56;;;;;;;0.00;0.00;;;18.90;47.80;;;;;;4190929;28;20118;-40
2021/04/11 12:00:20;;;;;;;0.00;0.00;;;19.10;47.50;;;;;;4190090;28;20159;-40
2021/04/11 12:02:48;;;;;;;1.02;0.65;;;19.20;47.80;;;;;;4190810;28;20139;-40
2021/04/11 12:05:15;;;;;;;0.00;0.00;;;19.40;46.40;;;;;;4190551;28;20482;-40
2021/04/11 12:07:41;;;;;;;0.00;0.00;;;19.50;46.00;;;;;;4190658;28;20080;-39
2021/04/11 12:10:12;;;;;;;0.00;0.00;;;19.60;46.10;;;;;;4190800;28;20047;-40
2021/04/11 12:12:39;;;;;;;0.00;0.00;;;19.70;45.90;;;;;;4190571;28;20051;-41
2021/04/11 12:15:03;;;;;;;0.25;0.13;;;19.70;45.80;;;;;;4190201;28;20044;-41
2021/04/11 12:17:33;;;;;;;0.00;0.00;;;19.70;45.80;;;;;;4190878;28;20059;-41
2021/04/11 12:19:59;;;;;;;0.10;0.10;;;19.50;46.00;;;;;;4189717;28;20056;-40
2021/04/11 12:22:30;;;;;;;0.20;0.20;;;19.40;46.20;;;;;;4190395;28;20044;-45
2021/04/11 12:24:55;;;;;;;0.00;0.00;;;19.50;46.20;;;;;;4191371;28;20059;-41
2021/04/11 12:27:27;;;;;;;0.00;0.00;;;19.50;46.20;;;;;;4190726;28;20048;-40
2021/04/11 12:29:50;;;;;;;0.00;0.00;;;19.60;46.00;;;;;;4190393;28;20049;-40
2021/04/11 12:32:23;;;;;;;0.13;0.05;;;19.70;46.10;;;;;;4190279;28;20495;-42
2021/04/11 12:34:51;;;;;;;0.08;0.08;;;19.70;45.70;;;;;;4190265;28;20490;-41
2021/04/11 12:37:20;;;;;;;0.00;0.00;;;19.60;45.80;;;;;;4189784;28;20060;-41
2021/04/11 12:39:41;;;;;;;0.00;0.00;;;19.60;45.70;;;;;;4190520;28;20055;-41
2021/04/11 12:42:26;;;;;;;0.00;0.00;;;19.70;46.40;;;;;;4190502;28;20135;-41
2021/04/11 12:44:50;;;;;;;0.00;0.00;;;19.70;45.70;;;;;;4190269;28;20564;-48
2021/04/11 12:47:37;;;;;;;0.10;0.10;;;19.60;46.00;;;;;;4190697;28;20098;-43
2021/04/11 12:50:04;;;;;;;0.00;0.00;;;19.40;45.90;;;;;;4173656;28;20049;-41
2021/04/11 12:52:34;;;;;;;0.00;0.00;;;19.20;46.20;;;;;;4176405;28;20053;-41
2021/04/11 12:55:03;;;;;;;0.00;0.00;;;19.20;46.60;;;;;;4189582;28;20052;-41
2021/04/11 12:57:28;;;;;;;0.00;0.00;;;19.20;46.80;;;;;;4191500;28;20048;-42
2021/04/11 12:59:58;;;;;;;0.13;0.13;;;19.20;46.80;;;;;;4192744;28;20109;-41
2021/04/11 13:02:27;;;;;;;0.00;0.00;;;19.20;46.90;;;;;;4192607;28;20080;-40
2021/04/11 13:04:51;;;;;;;0.00;0.00;;;19.30;46.50;;;;;;4192972;28;20044;-40
2021/04/11 13:07:19;;;;;;;0.20;0.20;;;19.30;46.50;;;;;;4191876;28;20067;-40
2021/04/11 13:10:09;;;;;;;0.00;0.00;;;19.20;46.70;;;;;;4175873;28;20136;-41
2021/04/11 13:12:41;;;;;;;0.38;0.38;;;19.10;46.80;;;;;;4175770;28;20510;-40
2021/04/11 13:15:11;;;;;;;0.57;0.57;;;19.00;47.20;;;;;;4176124;28;20041;-40